Time;durP1;ratioP1;P1;durP2;ratioP2;P2;SDS_P1;SDS_P2;PMS_P1;PMS_P2;Temp;Humidity;BMP_temperature;BMP_pressure;BME280_temperature;BME280_humidity;BME280_pressure;Samples;Min_cycle;Max_cycle;Signal;HPM_P1;HPM_P2
2021/07/22 00:02:01;;;;;;;13.43;11.27;;;;;;;;;;5015565;28;20957;-79
2021/07/22 00:04:29;;;;;;;12.90;9.93;;;;;;;;;;5014795;28;20964;-80
2021/07/22 00:06:56;;;;;;;14.10;10.50;;;;;;;;;;5014992;28;20454;-82
2021/07/22 00:09:24;;;;;;;13.03;11.07;;;;;;;;;;5015416;28;20796;-82
2021/07/22 00:11:51;;;;;;;13.23;10.80;;;;;;;;;;5015504;28;20446;-82
2021/07/22 00:14:19;;;;;;;17.87;9.80;;;;;;;;;;5015074;28;20536;-82
2021/07/22 00:16:46;;;;;;;14.73;9.67;;;;;;;;;;5016289;28;20775;-82
2021/07/22 00:19:13;;;;;;;14.50;10.60;;;;;;;;;;5014744;28;20809;-82
2021/07/22 00:21:40;;;;;;;12.67;10.50;;;;;;;;;;5015155;28;20446;-81
2021/07/22 00:24:07;;;;;;;12.67;10.13;;;;;;;;;;5014735;28;20455;-81
2021/07/22 00:26:38;;;;;;;12.67;10.70;;;;;;;;;;5014783;28;20442;-82
2021/07/22 00:29:05;;;;;;;12.80;10.63;;;;;;;;;;5015871;28;20775;-82
2021/07/22 00:31:33;;;;;;;15.30;10.87;;;;;;;;;;5014952;28;20447;-82
2021/07/22 00:34:00;;;;;;;16.00;11.17;;;;;;;;;;5017030;28;20544;-83
2021/07/22 00:36:27;;;;;;;10.73;9.50;;;;;;;;;;5014355;28;21073;-83
2021/07/22 00:38:54;;;;;;;12.20;10.47;;;;;;;;;;5014508;28;20531;-83
2021/07/22 00:41:21;;;;;;;15.10;10.90;;;;;;;;;;5014406;28;20445;-79
2021/07/22 00:43:50;;;;;;;14.90;10.70;;;;;;;;;;5014392;28;20454;-78
2021/07/22 00:46:17;;;;;;;17.30;12.20;;;;;;;;;;5014855;28;20976;-81
2021/07/22 00:48:44;;;;;;;15.37;10.03;;;;;;;;;;5015086;28;20495;-82
2021/07/22 00:51:11;;;;;;;12.07;10.63;;;;;;;;;;5015807;28;20447;-81
2021/07/22 00:53:39;;;;;;;14.40;11.13;;;;;;;;;;5014311;28;20446;-81
2021/07/22 00:56:06;;;;;;;14.83;12.07;;;;;;;;;;5014240;28;20478;-81
2021/07/22 00:58:33;;;;;;;14.70;10.83;;;;;;;;;;5015231;28;20452;-81
2021/07/22 01:01:02;;;;;;;14.80;11.10;;;;;;;;;;5014181;28;20447;-81
2021/07/22 01:03:29;;;;;;;13.73;10.70;;;;;;;;;;5014174;28;20522;-80
2021/07/22 01:05:56;;;;;;;14.93;12.43;;;;;;;;;;5014802;28;20478;-79
2021/07/22 01:08:23;;;;;;;13.33;11.27;;;;;;;;;;5014444;28;20466;-79
2021/07/22 01:10:51;;;;;;;18.10;11.93;;;;;;;;;;5014702;28;20450;-81
2021/07/22 01:13:18;;;;;;;14.50;11.33;;;;;;;;;;5014250;28;20451;-81
2021/07/22 01:15:45;;;;;;;16.27;11.13;;;;;;;;;;5014108;28;20486;-81
2021/07/22 01:18:13;;;;;;;14.63;12.10;;;;;;;;;;5014218;28;20448;-81
2021/07/22 01:20:42;;;;;;;15.50;11.47;;;;;;;;;;5014121;28;20444;-81
2021/07/22 01:23:09;;;;;;;15.60;12.40;;;;;;;;;;5013797;28;20451;-82
2021/07/22 01:25:36;;;;;;;15.67;11.60;;;;;;;;;;5014148;28;20446;-82
2021/07/22 01:28:04;;;;;;;15.10;12.20;;;;;;;;;;5014095;28;20450;-81
2021/07/22 01:30:31;;;;;;;15.43;11.93;;;;;;;;;;5013718;28;20446;-81
2021/07/22 01:32:58;;;;;;;16.07;12.53;;;;;;;;;;5013677;28;20458;-81
2021/07/22 01:35:25;;;;;;;13.60;11.20;;;;;;;;;;5013941;28;20486;-80
2021/07/22 01:37:54;;;;;;;16.70;12.10;;;;;;;;;;5013669;28;20929;-81
2021/07/22 01:40:21;;;;;;;16.07;12.37;;;;;;;;;;5013924;28;20445;-81
2021/07/22 01:42:48;;;;;;;19.37;12.70;;;;;;;;;;5013584;28;20452;-82
2021/07/22 01:45:15;;;;;;;14.17;11.83;;;;;;;;;;5013585;28;20459;-82
2021/07/22 01:47:43;;;;;;;19.50;13.30;;;;;;;;;;5013874;28;20436;-83
2021/07/22 01:50:11;;;;;;;16.30;13.03;;;;;;;;;;5014096;28;20498;-82
2021/07/22 01:52:38;;;;;;;17.60;13.67;;;;;;;;;;5013707;28;20941;-82
2021/07/22 01:55:07;;;;;;;18.53;12.60;;;;;;;;;;5013794;28;20482;-81
2021/07/22 01:57:34;;;;;;;17.53;12.80;;;;;;;;;;5013471;28;20530;-82
2021/07/22 02:00:05;;;;;;;20.30;14.10;;;;;;;;;;5013506;28;20448;-82
2021/07/22 02:02:32;;;;;;;16.70;13.80;;;;;;;;;;5014047;28;20799;-81
2021/07/22 02:05:00;;;;;;;19.37;14.40;;;;;;;;;;5013056;28;20490;-81
2021/07/22 02:07:27;;;;;;;17.73;14.03;;;;;;;;;;5013624;28;20444;-82
2021/07/22 02:09:54;;;;;;;19.80;13.57;;;;;;;;;;5013363;28;20448;-83
2021/07/22 02:12:23;;;;;;;23.50;15.67;;;;;;;;;;5013549;28;20453;-83
2021/07/22 02:14:51;;;;;;;17.70;14.77;;;;;;;;;;5013173;28;20453;-83
2021/07/22 02:17:19;;;;;;;21.30;14.53;;;;;;;;;;5014181;28;21036;-83
2021/07/22 02:19:46;;;;;;;19.53;14.20;;;;;;;;;;5013288;28;20448;-82
2021/07/22 02:22:15;;;;;;;23.37;14.90;;;;;;;;;;5013349;28;20444;-83
2021/07/22 02:24:43;;;;;;;18.50;13.73;;;;;;;;;;5013771;28;20444;-82
2021/07/22 02:27:10;;;;;;;17.03;13.20;;;;;;;;;;5013796;28;20451;-83
2021/07/22 02:29:38;;;;;;;17.33;13.63;;;;;;;;;;5013671;28;20445;-83
2021/07/22 02:32:06;;;;;;;15.90;13.30;;;;;;;;;;5013387;28;20443;-83
2021/07/22 02:34:33;;;;;;;18.00;13.43;;;;;;;;;;5013770;28;20922;-84
2021/07/22 02:37:01;;;;;;;17.27;12.90;;;;;;;;;;5013695;28;20479;-84
2021/07/22 02:39:28;;;;;;;17.30;13.30;;;;;;;;;;5013470;28;20454;-83
2021/07/22 02:41:55;;;;;;;20.80;14.30;;;;;;;;;;5013799;28;20553;-83
2021/07/22 02:44:22;;;;;;;18.40;13.97;;;;;;;;;;5016991;28;20443;-83
2021/07/22 02:46:51;;;;;;;20.10;14.50;;;;;;;;;;5017890;28;20435;-83
2021/07/22 02:49:18;;;;;;;17.73;13.67;;;;;;;;;;5017053;28;20613;-83
2021/07/22 02:51:45;;;;;;;15.77;13.03;;;;;;;;;;5016726;28;20447;-83
2021/07/22 02:54:13;;;;;;;18.93;14.50;;;;;;;;;;5018325;28;20937;-82
2021/07/22 02:56:40;;;;;;;16.43;12.30;;;;;;;;;;5023905;28;20479;-83
2021/07/22 02:59:07;;;;;;;18.77;12.53;;;;;;;;;;5024211;28;20512;-83
2021/07/22 03:01:35;;;;;;;18.60;14.00;;;;;;;;;;5021489;28;20554;-83
2021/07/22 03:04:04;;;;;;;21.73;14.23;;;;;;;;;;5017340;28;20542;-83
2021/07/22 03:06:31;;;;;;;19.17;13.67;;;;;;;;;;5017562;28;20479;-83
2021/07/22 03:08:58;;;;;;;18.30;14.30;;;;;;;;;;5020484;28;20447;-83
2021/07/22 03:11:25;;;;;;;27.77;14.13;;;;;;;;;;5022178;28;20451;-83
2021/07/22 03:13:53;;;;;;;18.10;13.63;;;;;;;;;;5017539;28;20790;-83
2021/07/22 03:16:20;;;;;;;16.00;12.60;;;;;;;;;;5017202;28;20497;-83
2021/07/22 03:18:47;;;;;;;16.07;12.93;;;;;;;;;;5016325;28;20455;-83
2021/07/22 03:21:15;;;;;;;18.20;13.67;;;;;;;;;;5016282;28;20447;-84
2021/07/22 03:23:43;;;;;;;18.50;13.00;;;;;;;;;;5016311;28;20443;-83
2021/07/22 03:26:10;;;;;;;16.43;12.57;;;;;;;;;;5016231;28;20458;-83
2021/07/22 03:28:37;;;;;;;17.47;12.10;;;;;;;;;;5016090;28;20454;-83
2021/07/22 03:31:07;;;;;;;17.20;13.10;;;;;;;;;;5016139;28;20444;-83
2021/07/22 03:33:34;;;;;;;16.20;13.53;;;;;;;;;;5015938;28;20443;-83
2021/07/22 03:36:03;;;;;;;18.70;13.57;;;;;;;;;;5015656;28;20483;-84
2021/07/22 03:38:32;;;;;;;14.67;12.20;;;;;;;;;;5016004;28;20444;-83
2021/07/22 03:40:59;;;;;;;20.33;13.57;;;;;;;;;;5015693;28;20456;-82
2021/07/22 03:43:26;;;;;;;16.23;12.67;;;;;;;;;;5016142;28;20439;-82
2021/07/22 03:45:58;;;;;;;15.77;13.07;;;;;;;;;;5016137;28;20443;-82
2021/07/22 03:48:25;;;;;;;20.17;12.40;;;;;;;;;;5016480;28;20823;-82
2021/07/22 03:50:52;;;;;;;18.63;13.03;;;;;;;;;;5015415;28;20447;-83
2021/07/22 03:53:20;;;;;;;17.17;13.20;;;;;;;;;;5015154;28;20449;-83
2021/07/22 03:55:48;;;;;;;18.43;13.30;;;;;;;;;;5015368;28;20485;-83
2021/07/22 03:58:15;;;;;;;23.23;14.50;;;;;;;;;;5015602;28;20437;-83
2021/07/22 04:00:42;;;;;;;18.70;13.73;;;;;;;;;;5015515;28;20443;-82
2021/07/22 04:03:10;;;;;;;18.43;13.60;;;;;;;;;;5015507;28;20437;-82
2021/07/22 04:05:37;;;;;;;18.37;14.57;;;;;;;;;;5015627;28;20483;-82
2021/07/22 04:08:04;;;;;;;20.80;14.37;;;;;;;;;;5015445;28;20780;-81
2021/07/22 04:10:32;;;;;;;19.57;14.23;;;;;;;;;;5015578;28;20439;-82
2021/07/22 04:13:01;;;;;;;19.13;14.67;;;;;;;;;;5015406;28;20445;-81
2021/07/22 04:15:28;;;;;;;21.30;14.43;;;;;;;;;;5015242;28;20447;-78
2021/07/22 04:17:56;;;;;;;21.47;15.77;;;;;;;;;;5014856;28;20450;-81
2021/07/22 04:20:24;;;;;;;19.93;16.93;;;;;;;;;;5015365;28;20440;-81
2021/07/22 04:22:52;;;;;;;20.17;13.60;;;;;;;;;;5015350;28;20447;-81
2021/07/22 04:25:20;;;;;;;22.30;13.93;;;;;;;;;;5015623;28;20876;-81
2021/07/22 04:27:47;;;;;;;22.50;14.80;;;;;;;;;;5014732;28;20448;-81
2021/07/22 04:30:16;;;;;;;22.13;17.53;;;;;;;;;;5013581;28;20483;-81
2021/07/22 04:32:46;;;;;;;24.50;17.30;;;;;;;;;;5010747;28;20451;-82
2021/07/22 04:35:14;;;;;;;23.60;15.67;;;;;;;;;;5015020;28;20991;-83
2021/07/22 04:37:41;;;;;;;21.63;16.37;;;;;;;;;;5014492;28;20479;-82
2021/07/22 04:40:08;;;;;;;22.77;15.87;;;;;;;;;;5014584;28;20947;-83
2021/07/22 04:42:36;;;;;;;22.60;15.67;;;;;;;;;;5014914;28;20854;-82
2021/07/22 04:45:03;;;;;;;21.63;15.17;;;;;;;;;;5014738;28;20448;-82
2021/07/22 04:47:32;;;;;;;21.10;15.93;;;;;;;;;;5015343;28;20447;-82
2021/07/22 04:49:59;;;;;;;22.23;16.07;;;;;;;;;;5014567;28;20624;-82
2021/07/22 04:52:26;;;;;;;19.77;15.00;;;;;;;;;;5014520;28;20449;-76
2021/07/22 04:54:53;;;;;;;25.47;16.40;;;;;;;;;;5015748;28;20795;-77
2021/07/22 04:57:21;;;;;;;19.93;15.20;;;;;;;;;;5014465;28;20506;-79
2021/07/22 04:59:48;;;;;;;20.07;14.77;;;;;;;;;;5014623;28;20518;-78
2021/07/22 05:02:16;;;;;;;17.37;14.20;;;;;;;;;;5014473;28;20444;-78
2021/07/22 05:04:45;;;;;;;19.23;15.40;;;;;;;;;;5013877;28;20543;-77
2021/07/22 05:07:12;;;;;;;19.53;15.27;;;;;;;;;;5014601;28;20443;-77
2021/07/22 05:09:39;;;;;;;19.70;15.27;;;;;;;;;;5014261;28;20453;-78
2021/07/22 05:12:08;;;;;;;20.87;15.50;;;;;;;;;;5013950;28;20965;-78
2021/07/22 05:14:35;;;;;;;21.17;15.37;;;;;;;;;;5014244;28;20444;-77
2021/07/22 05:17:02;;;;;;;20.93;15.03;;;;;;;;;;5014127;28;20484;-80
2021/07/22 05:19:30;;;;;;;19.03;14.97;;;;;;;;;;5013829;28;20454;-77
2021/07/22 05:21:59;;;;;;;28.80;15.73;;;;;;;;;;5014147;28;20925;-77
2021/07/22 05:24:26;;;;;;;20.77;15.47;;;;;;;;;;5013400;28;20936;-81
2021/07/22 05:26:53;;;;;;;21.70;16.93;;;;;;;;;;5013277;28;20458;-77
2021/07/22 05:29:20;;;;;;;24.40;16.90;;;;;;;;;;5013467;28;20450;-78
2021/07/22 05:31:47;;;;;;;23.53;16.73;;;;;;;;;;5013952;28;20800;-71
2021/07/22 05:34:14;;;;;;;23.30;17.63;;;;;;;;;;5013841;28;20460;-76
2021/07/22 05:36:42;;;;;;;21.60;16.83;;;;;;;;;;5014258;28;20489;-76
2021/07/22 05:39:11;;;;;;;25.73;16.57;;;;;;;;;;5014063;28;20444;-75
2021/07/22 05:41:38;;;;;;;26.20;17.03;;;;;;;;;;5013539;28;20439;-76
2021/07/22 05:44:06;;;;;;;19.60;15.93;;;;;;;;;;5013809;28;20491;-76
2021/07/22 05:46:33;;;;;;;27.63;15.27;;;;;;;;;;5013851;28;20440;-76
2021/07/22 05:49:00;;;;;;;20.93;14.87;;;;;;;;;;5013529;28;20441;-76
2021/07/22 05:51:30;;;;;;;19.90;15.30;;;;;;;;;;5013985;28;20452;-76
2021/07/22 05:53:58;;;;;;;27.10;15.90;;;;;;;;;;5013760;28;20440;-76
2021/07/22 05:56:26;;;;;;;24.23;15.70;;;;;;;;;;5013347;28;20485;-76
2021/07/22 05:58:54;;;;;;;29.60;14.80;;;;;;;;;;5013718;28;20446;-76
2021/07/22 06:01:21;;;;;;;20.53;14.70;;;;;;;;;;5013383;28;20498;-76
2021/07/22 06:03:48;;;;;;;19.20;14.57;;;;;;;;;;5013926;28;20459;-76
2021/07/22 06:06:15;;;;;;;23.70;15.60;;;;;;;;;;5014473;28;20472;-76
2021/07/22 06:08:43;;;;;;;24.43;14.80;;;;;;;;;;5013669;28;20449;-77
2021/07/22 06:11:12;;;;;;;24.17;15.23;;;;;;;;;;5013630;28;20447;-77
2021/07/22 06:13:41;;;;;;;23.50;15.10;;;;;;;;;;5013606;28;20510;-76
2021/07/22 06:16:10;;;;;;;19.47;15.37;;;;;;;;;;5013521;28;20445;-76
2021/07/22 06:18:37;;;;;;;20.77;14.93;;;;;;;;;;5017255;28;20440;-77
2021/07/22 06:21:04;;;;;;;26.97;15.83;;;;;;;;;;5017349;28;20449;-76
2021/07/22 06:23:31;;;;;;;19.23;14.17;;;;;;;;;;5017292;28;20448;-77
2021/07/22 06:25:59;;;;;;;19.00;15.30;;;;;;;;;;5017139;28;20977;-76
2021/07/22 06:28:27;;;;;;;23.40;14.90;;;;;;;;;;5017362;28;20446;-76
2021/07/22 06:30:55;;;;;;;20.43;16.47;;;;;;;;;;5017190;28;20437;-76
2021/07/22 06:33:24;;;;;;;20.40;15.40;;;;;;;;;;5016845;28;20534;-76
2021/07/22 06:35:51;;;;;;;28.70;16.77;;;;;;;;;;5017371;28;20464;-76
2021/07/22 06:38:18;;;;;;;22.67;15.60;;;;;;;;;;5016967;28;20490;-76
2021/07/22 06:40:46;;;;;;;20.73;14.60;;;;;;;;;;5016960;28;20449;-76
2021/07/22 06:43:13;;;;;;;22.43;15.43;;;;;;;;;;5016562;28;20938;-76
2021/07/22 06:45:40;;;;;;;26.53;15.00;;;;;;;;;;5016583;28;20446;-76
2021/07/22 06:48:09;;;;;;;21.00;15.60;;;;;;;;;;5016582;28;20455;-76
2021/07/22 06:50:37;;;;;;;20.73;14.30;;;;;;;;;;5016809;28;20441;-76
2021/07/22 06:53:04;;;;;;;27.13;15.53;;;;;;;;;;5017037;28;20447;-76
2021/07/22 06:55:31;;;;;;;20.53;15.57;;;;;;;;;;5016685;28;20447;-76
2021/07/22 06:58:04;;;;;;;18.17;14.77;;;;;;;;;;5016550;28;20557;-76
2021/07/22 07:00:31;;;;;;;22.90;16.50;;;;;;;;;;5016743;28;20921;-76
2021/07/22 07:02:58;;;;;;;22.67;16.30;;;;;;;;;;5016534;28;20506;-76
2021/07/22 07:05:27;;;;;;;19.37;14.00;;;;;;;;;;5016651;28;20902;-76
2021/07/22 07:07:55;;;;;;;25.33;15.87;;;;;;;;;;5016469;28;20452;-76
2021/07/22 07:10:23;;;;;;;29.10;15.73;;;;;;;;;;5016491;28;20451;-75
2021/07/22 07:12:51;;;;;;;19.03;15.77;;;;;;;;;;5016625;28;20457;-77
2021/07/22 07:15:19;;;;;;;26.03;16.00;;;;;;;;;;5016332;28;20450;-75
2021/07/22 07:17:46;;;;;;;24.30;16.20;;;;;;;;;;5016162;28;20481;-75
2021/07/22 07:20:13;;;;;;;25.07;16.47;;;;;;;;;;5016194;28;20880;-75
2021/07/22 07:22:42;;;;;;;23.20;16.93;;;;;;;;;;5015880;28;20451;-75
2021/07/22 07:25:10;;;;;;;24.27;17.23;;;;;;;;;;5016412;28;20446;-76
2021/07/22 07:27:38;;;;;;;20.13;16.83;;;;;;;;;;5015828;28;20945;-75
2021/07/22 07:30:06;;;;;;;22.13;17.13;;;;;;;;;;5016072;28;20804;-75
2021/07/22 07:32:34;;;;;;;22.77;17.17;;;;;;;;;;5015958;28;20449;-75
2021/07/22 07:35:02;;;;;;;22.60;17.80;;;;;;;;;;5015663;28;21009;-77
2021/07/22 07:37:29;;;;;;;28.20;16.23;;;;;;;;;;5015543;28;20474;-75
2021/07/22 07:39:58;;;;;;;21.80;17.40;;;;;;;;;;5015898;28;20446;-74
2021/07/22 07:42:27;;;;;;;23.30;19.00;;;;;;;;;;5016068;28;20532;-75
2021/07/22 07:44:55;;;;;;;23.10;17.43;;;;;;;;;;5015480;28;20458;-75
2021/07/22 07:47:23;;;;;;;20.83;17.30;;;;;;;;;;5015645;28;20500;-75
2021/07/22 07:49:52;;;;;;;30.60;18.07;;;;;;;;;;5015641;28;20442;-75
2021/07/22 07:52:20;;;;;;;25.93;16.30;;;;;;;;;;5015356;28;20457;-75
2021/07/22 07:54:50;;;;;;;24.60;19.00;;;;;;;;;;5015605;28;20532;-75
2021/07/22 07:57:19;;;;;;;23.57;18.90;;;;;;;;;;5015997;28;20470;-75
2021/07/22 07:59:47;;;;;;;25.40;16.50;;;;;;;;;;5015909;28;20445;-76
2021/07/22 08:02:15;;;;;;;22.80;17.57;;;;;;;;;;5015056;28;20445;-75
2021/07/22 08:04:42;;;;;;;26.23;18.60;;;;;;;;;;5015691;28;20535;-74
2021/07/22 08:07:09;;;;;;;25.10;18.57;;;;;;;;;;5015819;28;20444;-75
2021/07/22 08:09:36;;;;;;;31.23;20.50;;;;;;;;;;5015033;28;20441;-75
2021/07/22 08:12:04;;;;;;;26.13;17.47;;;;;;;;;;5014951;28;20457;-75
2021/07/22 08:14:36;;;;;;;27.27;19.80;;;;;;;;;;5015486;28;20449;-75
2021/07/22 08:17:04;;;;;;;28.67;20.10;;;;;;;;;;5015242;28;20457;-75
2021/07/22 08:19:32;;;;;;;26.33;19.20;;;;;;;;;;5015357;28;20828;-75
2021/07/22 08:21:59;;;;;;;24.10;18.77;;;;;;;;;;5014814;28;20540;-75
2021/07/22 08:24:26;;;;;;;25.40;18.77;;;;;;;;;;5015772;28;20455;-75
2021/07/22 08:26:53;;;;;;;27.70;18.70;;;;;;;;;;5015179;28;20805;-76
2021/07/22 08:29:20;;;;;;;27.20;19.33;;;;;;;;;;5015390;28;20460;-75
2021/07/22 08:31:49;;;;;;;27.00;19.17;;;;;;;;;;5014993;28;20445;-75
2021/07/22 08:34:17;;;;;;;26.00;17.60;;;;;;;;;;5014876;28;20490;-76
2021/07/22 08:36:44;;;;;;;23.10;18.20;;;;;;;;;;5015331;28;20852;-75
2021/07/22 08:39:12;;;;;;;23.97;18.17;;;;;;;;;;5014148;28;20992;-75
2021/07/22 08:41:44;;;;;;;24.53;17.27;;;;;;;;;;5014216;28;20536;-76
2021/07/22 08:44:12;;;;;;;25.60;18.77;;;;;;;;;;5014743;28;20558;-76
2021/07/22 08:46:41;;;;;;;27.33;20.00;;;;;;;;;;5014404;28;21021;-76
2021/07/22 08:49:10;;;;;;;25.70;18.90;;;;;;;;;;5014549;28;20456;-75
2021/07/22 08:51:38;;;;;;;24.40;18.20;;;;;;;;;;5014203;28;20450;-75
2021/07/22 08:54:05;;;;;;;25.23;18.87;;;;;;;;;;5014578;28;20537;-75
2021/07/22 08:56:32;;;;;;;24.83;17.63;;;;;;;;;;5014561;28;20439;-74
2021/07/22 08:59:01;;;;;;;29.03;20.83;;;;;;;;;;5014396;28;20488;-75
2021/07/22 09:01:31;;;;;;;30.00;20.20;;;;;;;;;;5014443;28;20837;-75
2021/07/22 09:03:58;;;;;;;27.60;20.37;;;;;;;;;;5014151;28;20449;-75
2021/07/22 09:06:27;;;;;;;27.93;20.00;;;;;;;;;;5014767;28;20469;-75
2021/07/22 09:08:55;;;;;;;26.50;20.50;;;;;;;;;;5013973;28;20449;-76
2021/07/22 09:11:25;;;;;;;30.13;22.40;;;;;;;;;;5014745;28;20465;-75
2021/07/22 09:14:11;;;;;;;26.27;20.00;;;;;;;;;;5014161;28;20530;-75
2021/07/22 09:16:38;;;;;;;25.73;20.80;;;;;;;;;;5014676;28;20790;-75
2021/07/22 09:19:05;;;;;;;29.13;19.90;;;;;;;;;;5013769;28;20486;-75
2021/07/22 09:21:34;;;;;;;21.60;19.10;;;;;;;;;;5013870;28;20442;-76
2021/07/22 09:24:05;;;;;;;26.60;19.20;;;;;;;;;;5014079;28;20451;-75
2021/07/22 09:26:33;;;;;;;23.40;19.50;;;;;;;;;;5014033;28;20439;-76
2021/07/22 09:29:05;;;;;;;26.30;19.97;;;;;;;;;;5013911;28;20456;-76
2021/07/22 09:31:32;;;;;;;26.50;18.57;;;;;;;;;;5013866;28;20471;-76
2021/07/22 09:33:59;;;;;;;30.40;21.10;;;;;;;;;;5013552;28;20941;-75
2021/07/22 09:36:35;;;;;;;27.00;21.83;;;;;;;;;;5014097;28;20797;-76
2021/07/22 09:39:20;;;;;;;26.53;20.43;;;;;;;;;;5014592;28;20510;-76
2021/07/22 09:41:47;;;;;;;27.23;20.77;;;;;;;;;;5014307;28;20458;-76
2021/07/22 09:44:28;;;;;;;25.40;20.70;;;;;;;;;;5013534;28;20439;-75
2021/07/22 09:46:55;;;;;;;32.63;22.17;;;;;;;;;;5013837;28;20818;-75
2021/07/22 09:49:31;;;;;;;151.73;33.40;;;;;;;;;;5013433;28;20850;-75
2021/07/22 09:52:01;;;;;;;30.60;20.80;;;;;;;;;;5014774;28;20521;-75
2021/07/22 09:54:34;;;;;;;26.50;19.33;;;;;;;;;;5018339;28;20485;-76
2021/07/22 09:57:02;;;;;;;25.80;19.90;;;;;;;;;;5018422;28;20734;-75
2021/07/22 09:59:29;;;;;;;28.40;19.67;;;;;;;;;;5017754;28;20514;-76
2021/07/22 10:01:58;;;;;;;27.30;20.47;;;;;;;;;;5017917;28;20453;-74
2021/07/22 10:04:25;;;;;;;23.60;18.53;;;;;;;;;;5017804;28;20457;-75
2021/07/22 10:06:53;;;;;;;27.60;21.43;;;;;;;;;;5017123;28;20530;-75
2021/07/22 10:09:23;;;;;;;25.60;20.00;;;;;;;;;;5017359;28;20454;-75
2021/07/22 10:11:51;;;;;;;25.30;20.87;;;;;;;;;;5017888;28;20482;-74
2021/07/22 10:14:19;;;;;;;23.13;19.30;;;;;;;;;;5017284;28;20537;-75
2021/07/22 10:16:47;;;;;;;23.40;18.30;;;;;;;;;;5017185;28;20546;-76
2021/07/22 10:19:14;;;;;;;24.87;19.53;;;;;;;;;;5017594;28;20828;-75
2021/07/22 10:21:41;;;;;;;22.60;18.23;;;;;;;;;;5017637;28;20528;-76
2021/07/22 10:24:09;;;;;;;27.33;18.77;;;;;;;;;;5017380;28;20797;-75
2021/07/22 10:26:40;;;;;;;25.17;19.43;;;;;;;;;;5017124;28;20448;-75
2021/07/22 10:29:07;;;;;;;29.47;19.07;;;;;;;;;;5017002;28;20919;-75
2021/07/22 10:31:35;;;;;;;25.30;18.83;;;;;;;;;;5017190;28;20434;-74
2021/07/22 10:34:02;;;;;;;31.93;20.20;;;;;;;;;;5017206;28;20544;-76
2021/07/22 10:36:30;;;;;;;24.40;19.17;;;;;;;;;;5017192;28;20522;-75
2021/07/22 10:38:57;;;;;;;20.60;17.23;;;;;;;;;;5017148;28;20506;-76
2021/07/22 10:41:41;;;;;;;25.70;19.53;;;;;;;;;;5016893;28;20443;-75
2021/07/22 10:44:08;;;;;;;21.93;19.33;;;;;;;;;;5016816;28;20432;-75
2021/07/22 10:46:50;;;;;;;21.10;18.90;;;;;;;;;;5016632;28;20505;-75
2021/07/22 10:49:18;;;;;;;23.83;17.60;;;;;;;;;;5017020;28;20465;-75
2021/07/22 10:51:46;;;;;;;25.63;21.70;;;;;;;;;;5016898;28;20439;-76
2021/07/22 10:54:43;;;;;;;26.93;20.20;;;;;;;;;;5017531;28;20475;-74
2021/07/22 10:57:35;;;;;;;22.80;17.87;;;;;;;;;;5017398;28;20470;-73
2021/07/22 11:00:04;;;;;;;25.97;19.57;;;;;;;;;;5016783;28;20474;-75
2021/07/22 11:02:41;;;;;;;27.80;17.80;;;;;;;;;;5016541;28;20447;-75
2021/07/22 11:05:08;;;;;;;24.20;19.13;;;;;;;;;;5016067;28;20486;-75
2021/07/22 11:07:38;;;;;;;23.77;18.53;;;;;;;;;;5016891;28;20443;-76
2021/07/22 11:10:06;;;;;;;26.33;20.00;;;;;;;;;;5016135;28;20938;-75
2021/07/22 11:12:55;;;;;;;26.30;17.83;;;;;;;;;;5016105;28;20527;-74
2021/07/22 11:15:37;;;;;;;23.10;16.60;;;;;;;;;;5016115;28;20439;-72
2021/07/22 11:18:25;;;;;;;20.30;17.40;;;;;;;;;;5007874;28;20489;-73
2021/07/22 11:21:04;;;;;;;22.30;16.67;;;;;;;;;;5016221;28;20444;-75
2021/07/22 11:23:32;;;;;;;22.90;17.77;;;;;;;;;;5016024;28;20518;-74
2021/07/22 11:26:00;;;;;;;22.70;17.23;;;;;;;;;;5016092;28;20471;-72
2021/07/22 11:28:29;;;;;;;18.77;15.00;;;;;;;;;;5015802;28;20462;-78
2021/07/22 11:31:00;;;;;;;19.20;17.00;;;;;;;;;;5016388;28;20445;-75
2021/07/22 11:33:33;;;;;;;20.63;14.10;;;;;;;;;;5015775;28;20546;-74
2021/07/22 11:36:01;;;;;;;24.70;15.60;;;;;;;;;;5015810;28;20441;-77
2021/07/22 11:38:30;;;;;;;19.17;16.20;;;;;;;;;;5015500;28;21080;-74
2021/07/22 11:40:58;;;;;;;16.63;14.17;;;;;;;;;;5016258;28;20563;-76
2021/07/22 11:43:42;;;;;;;19.37;16.10;;;;;;;;;;5015655;28;21031;-76
2021/07/22 11:46:11;;;;;;;17.33;14.57;;;;;;;;;;5015743;28;20450;-73
2021/07/22 11:48:38;;;;;;;20.70;15.00;;;;;;;;;;5015704;28;20554;-74
2021/07/22 11:51:07;;;;;;;19.60;14.10;;;;;;;;;;5015690;28;20440;-75
2021/07/22 11:53:34;;;;;;;18.67;15.30;;;;;;;;;;5015632;28;20526;-76
2021/07/22 11:56:09;;;;;;;22.10;16.03;;;;;;;;;;5015348;28;20447;-76
2021/07/22 11:58:36;;;;;;;16.50;14.80;;;;;;;;;;5015541;28;20471;-78
2021/07/22 12:01:05;;;;;;;16.13;13.90;;;;;;;;;;5015480;28;20448;-73
2021/07/22 12:03:33;;;;;;;15.93;14.23;;;;;;;;;;5015184;28;20445;-73
2021/07/22 12:06:00;;;;;;;18.70;15.30;;;;;;;;;;5015038;28;20561;-73
2021/07/22 12:08:27;;;;;;;17.53;13.77;;;;;;;;;;5015221;28;20435;-72
2021/07/22 12:10:59;;;;;;;19.20;14.77;;;;;;;;;;5015166;28;20448;-72
2021/07/22 12:13:26;;;;;;;16.97;13.67;;;;;;;;;;5015028;28;20439;-75
2021/07/22 12:15:53;;;;;;;15.73;13.23;;;;;;;;;;5014454;28;20446;-75
2021/07/22 12:18:24;;;;;;;16.40;14.40;;;;;;;;;;5014780;28;20449;-76
2021/07/22 12:20:52;;;;;;;16.57;12.47;;;;;;;;;;5014921;28;20531;-75
2021/07/22 12:23:29;;;;;;;15.80;12.57;;;;;;;;;;5015139;28;20443;-74
2021/07/22 12:25:57;;;;;;;13.97;11.07;;;;;;;;;;5015174;28;20435;-76
2021/07/22 12:28:24;;;;;;;20.20;12.93;;;;;;;;;;5014668;28;20451;-75
2021/07/22 12:30:52;;;;;;;16.37;14.00;;;;;;;;;;5014998;28;20446;-75
2021/07/22 12:33:27;;;;;;;15.70;14.03;;;;;;;;;;5014929;28;20532;-75
2021/07/22 12:35:55;;;;;;;16.30;13.83;;;;;;;;;;5014739;28;20519;-76
2021/07/22 12:38:26;;;;;;;14.73;12.03;;;;;;;;;;5014899;28;20952;-74
2021/07/22 12:41:05;;;;;;;13.77;12.30;;;;;;;;;;5014442;28;20950;-74
2021/07/22 12:43:45;;;;;;;13.03;11.70;;;;;;;;;;5014816;28;20540;-74
2021/07/22 12:46:16;;;;;;;16.10;13.30;;;;;;;;;;5014915;28;20949;-75
2021/07/22 12:48:44;;;;;;;16.67;13.37;;;;;;;;;;5015020;28;20438;-73
2021/07/22 12:51:13;;;;;;;17.13;12.27;;;;;;;;;;5014524;28;20778;-72
2021/07/22 12:53:41;;;;;;;14.80;12.10;;;;;;;;;;5015192;28;20444;-70
2021/07/22 12:56:08;;;;;;;13.13;11.83;;;;;;;;;;5014476;28;20541;-67
2021/07/22 12:58:37;;;;;;;15.80;12.90;;;;;;;;;;5014428;28;20451;-77
2021/07/22 13:01:06;;;;;;;15.07;11.27;;;;;;;;;;5014944;28;20493;-77
2021/07/22 13:03:33;;;;;;;15.93;12.20;;;;;;;;;;5013858;28;20456;-78
2021/07/22 13:06:02;;;;;;;14.23;11.77;;;;;;;;;;5014659;28;20472;-77
2021/07/22 13:08:29;;;;;;;13.67;11.90;;;;;;;;;;5014260;28;20449;-75
2021/07/22 13:10:57;;;;;;;12.07;10.87;;;;;;;;;;5014602;28;20498;-72
2021/07/22 13:13:24;;;;;;;14.13;11.37;;;;;;;;;;5019767;28;20481;-75
2021/07/22 13:15:51;;;;;;;14.20;11.30;;;;;;;;;;5016823;28;20469;-78
2021/07/22 13:18:19;;;;;;;12.77;11.30;;;;;;;;;;5006912;28;20460;-78
2021/07/22 13:20:47;;;;;;;13.93;10.70;;;;;;;;;;4994955;28;20506;-76
2021/07/22 13:23:16;;;;;;;13.97;12.50;;;;;;;;;;4996068;28;20495;-79
2021/07/22 13:25:43;;;;;;;11.57;10.47;;;;;;;;;;4997297;28;20456;-79
2021/07/22 13:28:10;;;;;;;12.40;9.20;;;;;;;;;;4998855;28;20531;-79
2021/07/22 13:30:38;;;;;;;11.07;9.97;;;;;;;;;;4998323;28;20450;-79
2021/07/22 13:33:05;;;;;;;11.30;9.63;;;;;;;;;;4996080;28;20970;-79
2021/07/22 13:35:35;;;;;;;10.90;9.30;;;;;;;;;;4995458;28;20454;-78
2021/07/22 13:38:03;;;;;;;9.90;8.90;;;;;;;;;;4995242;28;20433;-77
2021/07/22 13:40:32;;;;;;;13.23;9.17;;;;;;;;;;4994417;28;20569;-78
2021/07/22 13:43:01;;;;;;;12.67;8.57;;;;;;;;;;4994602;28;20450;-79
2021/07/22 13:45:28;;;;;;;12.57;9.20;;;;;;;;;;4995251;28;20540;-80
2021/07/22 13:47:55;;;;;;;9.73;8.17;;;;;;;;;;5011453;28;20805;-79
2021/07/22 13:50:23;;;;;;;11.60;9.23;;;;;;;;;;5015423;28;20531;-81
2021/07/22 13:52:50;;;;;;;11.40;9.30;;;;;;;;;;5014619;28;20544;-79
2021/07/22 13:55:17;;;;;;;10.70;8.67;;;;;;;;;;5016393;28;20446;-80
2021/07/22 13:57:46;;;;;;;9.37;8.17;;;;;;;;;;5016454;28;20438;-77
2021/07/22 14:00:13;;;;;;;10.07;9.07;;;;;;;;;;5013643;28;20994;-80
2021/07/22 14:02:41;;;;;;;11.40;9.43;;;;;;;;;;5013787;28;20956;-80
2021/07/22 14:05:08;;;;;;;9.03;8.13;;;;;;;;;;5015399;28;20455;-80
2021/07/22 14:07:35;;;;;;;10.03;9.03;;;;;;;;;;5017921;28;20468;-78
2021/07/22 14:10:03;;;;;;;15.53;9.30;;;;;;;;;;5013595;28;20487;-81
2021/07/22 14:12:30;;;;;;;9.57;8.60;;;;;;;;;;5014128;28;20444;-79
2021/07/22 14:15:00;;;;;;;10.90;8.53;;;;;;;;;;5014370;28;20451;-80
2021/07/22 14:17:27;;;;;;;11.37;8.60;;;;;;;;;;5013694;28;20446;-76
2021/07/22 14:19:54;;;;;;;10.60;8.77;;;;;;;;;;5013173;28;20579;-77
2021/07/22 14:22:21;;;;;;;10.70;8.60;;;;;;;;;;5003442;28;21007;-81
2021/07/22 14:24:48;;;;;;;10.77;8.30;;;;;;;;;;5011278;28;20447;-78
2021/07/22 14:27:16;;;;;;;9.50;8.50;;;;;;;;;;5001326;28;20453;-82